EPGD

Gdańsk Lech Wałęsa Airport

Gdańsk, Poland
METAR EPGD 220330Z 24013KT CAVOK 10/08 Q1009
Observed Flight Rules
Sep-22 @ 03:30 UTC (13 minutes ago) Visual Flight Rules
Wind Visibility Clouds
240° at 13 knots 10,000+ meters
Temperatures Readings
Current 10°C / 50°F
Dewpoint 8°C / 46°F
Humidity 88%
Altimeter 29.79" Hg
Pressure 1009 hPa
Elevation 138
METAR EPGD 220330Z 24013KT CAVOK 10/08 Q1009
Observed Flight Rules
Sep-22 @ 03:30 UTC
(13 minutes ago)
VFR
Wind Visibility
240° at 13 knots 10,000+ meters
Clouds
Temperature Dewpoint
10°C / 50°F 8°C / 46°F
Humidity Altimeter Pressure
88% 29.79" Hg 1009 hPa